createdAt,value
2023-02-22T00:01:19.290Z,98658.28
2023-02-22T00:03:27.036Z,98659.81
2023-02-22T00:05:28.929Z,98652.97
2023-02-22T00:07:30.454Z,98656.16
2023-02-22T00:09:31.975Z,98656.03
2023-02-22T00:11:35.496Z,98657.09
2023-02-22T00:13:38.583Z,98653.78
2023-02-22T00:15:41.461Z,98653.78
2023-02-22T00:17:43.323Z,98646.69
2023-02-22T00:19:44.975Z,98652.59
2023-02-22T00:21:53.243Z,98654.69
2023-02-22T00:23:54.972Z,98646.41
2023-02-22T00:25:58.591Z,98651.00
2023-02-22T00:28:01.045Z,98642.53
2023-02-22T00:30:05.240Z,98647.38
2023-02-22T00:32:07.026Z,98647.56
2023-02-22T00:34:13.208Z,98639.69
2023-02-22T00:36:15.093Z,98647.00
2023-02-22T00:38:20.560Z,98645.56
2023-02-22T00:40:25.024Z,98653.13
2023-02-22T00:42:27.106Z,98644.41
2023-02-22T00:44:28.742Z,98646.16
2023-02-22T00:46:30.263Z,98644.47
2023-02-22T00:48:32.297Z,98643.31
2023-02-22T00:50:35.049Z,98638.69
2023-02-22T00:52:38.196Z,98643.16
2023-02-22T00:54:39.888Z,98645.03
2023-02-22T00:56:42.064Z,98640.91
2023-02-22T00:58:44.642Z,98649.88
2023-02-22T01:00:47.028Z,98646.59
2023-02-22T01:02:52.370Z,98636.78
2023-02-22T01:04:54.164Z,98642.44
2023-02-22T01:06:55.769Z,98632.63
2023-02-22T01:08:57.370Z,98637.22
2023-02-22T01:10:59.019Z,98629.94
2023-02-22T01:13:01.744Z,98624.94
2023-02-22T01:15:05.340Z,98618.34
2023-02-22T01:17:07.074Z,98619.19
2023-02-22T01:19:08.833Z,98624.75
2023-02-22T01:21:10.498Z,98615.00
2023-02-22T01:23:12.764Z,98621.53
2023-02-22T01:25:20.189Z,98618.06
2023-02-22T01:27:25.427Z,98614.53
2023-02-22T01:29:27.078Z,98618.88
2023-02-22T01:31:28.751Z,98614.75
2023-02-22T01:33:30.821Z,98616.66
2023-02-22T01:35:37.898Z,98609.56
2023-02-22T01:37:39.973Z,98607.91
2023-02-22T01:39:41.574Z,98611.69
2023-02-22T01:41:44.904Z,98609.44
2023-02-22T01:43:46.527Z,98605.66
2023-02-22T01:45:58.019Z,98608.25
2023-02-22T01:48:04.731Z,98604.91
2023-02-22T01:50:07.205Z,98603.88
2023-02-22T01:52:11.806Z,98605.41
2023-02-22T01:54:21.563Z,98605.84
2023-02-22T01:56:26.959Z,98600.44
2023-02-22T01:58:30.756Z,98609.16
2023-02-22T02:00:33.233Z,98607.47
2023-02-22T02:02:35.381Z,98605.00
2023-02-22T02:04:37.459Z,98608.78
2023-02-22T02:06:39.947Z,98612.78
2023-02-22T02:09:13.912Z,98611.13
2023-02-22T02:11:19.999Z,98604.72
2023-02-22T02:13:21.508Z,98603.91
2023-02-22T02:15:33.754Z,98605.63
2023-02-22T02:17:37.170Z,98601.06
2023-02-22T02:19:44.643Z,98599.41
2023-02-22T02:22:06.192Z,98599.63
2023-02-22T02:24:22.614Z,98602.13
2023-02-22T02:27:05.479Z,98591.72
2023-02-22T02:29:41.944Z,98593.22
2023-02-22T02:32:24.380Z,98587.81
2023-02-22T02:34:34.123Z,98579.09
2023-02-22T02:36:52.837Z,98575.78
2023-02-22T02:38:57.954Z,98579.69
2023-02-22T02:41:14.260Z,98580.97
2023-02-22T02:43:50.520Z,98580.38
2023-02-22T02:46:05.502Z,98572.47
2023-02-22T02:48:12.574Z,98580.59
2023-02-22T02:50:21.601Z,98573.53
2023-02-22T02:52:25.917Z,98569.75
2023-02-22T02:54:28.234Z,98567.75
2023-02-22T02:56:30.951Z,98563.00
2023-02-22T02:58:35.550Z,98565.50
2023-02-22T03:00:41.391Z,98557.56
2023-02-22T03:03:21.050Z,98559.09
2023-02-22T03:05:42.455Z,98555.78
2023-02-22T03:08:14.102Z,98556.84
2023-02-22T03:10:39.887Z,98561.41
2023-02-22T03:13:25.710Z,98557.75
2023-02-22T03:15:52.893Z,98560.47
2023-02-22T03:18:06.742Z,98559.84
2023-02-22T03:20:31.973Z,98555.94
2023-02-22T03:22:48.222Z,98548.66
2023-02-22T03:25:07.121Z,98558.06
2023-02-22T03:27:18.407Z,98551.44
2023-02-22T03:29:29.459Z,98554.13
2023-02-22T03:31:37.655Z,98553.53
2023-02-22T03:34:01.153Z,98545.66
2023-02-22T03:36:16.875Z,98549.41
2023-02-22T03:38:21.003Z,98546.94
2023-02-22T03:40:30.060Z,98543.41
2023-02-22T03:42:37.687Z,98538.44
2023-02-22T03:44:43.359Z,98545.72
2023-02-22T03:46:48.549Z,98541.81
2023-02-22T03:48:57.332Z,98543.69
2023-02-22T03:51:00.961Z,98545.81
2023-02-22T03:53:03.398Z,98543.34
2023-02-22T03:55:11.194Z,98539.78
2023-02-22T03:57:18.543Z,98543.19
2023-02-22T03:59:27.522Z,98544.22
2023-02-22T04:01:31.939Z,98540.47
2023-02-22T04:03:33.652Z,98547.38
2023-02-22T04:05:36.504Z,98547.63
2023-02-22T04:07:38.283Z,98556.56
2023-02-22T04:09:40.091Z,98550.53
2023-02-22T04:11:41.738Z,98555.34
2023-02-22T04:13:43.415Z,98557.47
2023-02-22T04:15:44.949Z,98555.78
2023-02-22T04:17:47.320Z,98558.72
2023-02-22T04:19:52.793Z,98556.22
2023-02-22T04:21:57.727Z,98554.00
2023-02-22T04:24:00.788Z,98551.50
2023-02-22T04:26:04.381Z,98558.19
2023-02-22T04:28:06.200Z,98556.56
2023-02-22T04:30:20.456Z,98550.50
2023-02-22T04:32:23.060Z,98545.34
2023-02-22T04:34:24.667Z,98554.50
2023-02-22T04:36:27.708Z,98550.97
2023-02-22T04:38:29.404Z,98554.13
2023-02-22T04:40:35.836Z,98541.88
2023-02-22T04:42:39.054Z,98535.19
2023-02-22T04:44:40.968Z,98535.38
2023-02-22T04:46:42.635Z,98532.91
2023-02-22T04:48:54.695Z,98533.97
2023-02-22T04:50:59.429Z,98530.06
2023-02-22T04:53:03.791Z,98531.09
2023-02-22T04:55:06.740Z,98529.22
2023-02-22T04:57:10.723Z,98526.75
2023-02-22T04:59:12.464Z,98532.38
2023-02-22T05:01:18.176Z,98530.34
2023-02-22T05:03:21.441Z,98534.72
2023-02-22T05:05:23.230Z,98533.88
2023-02-22T05:07:24.705Z,98527.03
2023-02-22T05:09:26.245Z,98532.69
2023-02-22T05:11:28.031Z,98537.03
2023-02-22T05:13:29.624Z,98533.31
2023-02-22T05:15:31.301Z,98532.53
2023-02-22T05:17:33.170Z,98531.44
2023-02-22T05:19:34.719Z,98521.91
2023-02-22T05:21:36.283Z,98527.31
2023-02-22T05:23:37.977Z,98525.69
2023-02-22T05:25:39.574Z,98521.31
2023-02-22T05:27:41.399Z,98515.91
2023-02-22T05:29:43.404Z,98518.22
2023-02-22T05:31:45.060Z,98507.38
2023-02-22T05:33:48.468Z,98513.03
2023-02-22T05:35:50.431Z,98509.72
2023-02-22T05:37:52.624Z,98514.31
2023-02-22T05:39:56.009Z,98516.41
2023-02-22T05:41:57.900Z,98511.41
2023-02-22T05:43:59.422Z,98506.22
2023-02-22T05:46:00.927Z,98508.94
2023-02-22T05:48:03.208Z,98509.38
2023-02-22T05:50:05.134Z,98509.13
2023-02-22T05:52:06.983Z,98504.78
2023-02-22T05:54:08.490Z,98501.03
2023-02-22T05:56:10.178Z,98504.16
2023-02-22T05:58:11.717Z,98505.00
2023-02-22T06:00:26.373Z,98506.28
2023-02-22T06:02:27.860Z,98499.22
2023-02-22T06:04:30.475Z,98507.34
2023-02-22T06:06:32.147Z,98503.78
2023-02-22T06:08:33.680Z,98510.03
2023-02-22T06:10:35.490Z,98511.91
2023-02-22T06:12:37.052Z,98511.06
2023-02-22T06:14:38.592Z,98504.84
2023-02-22T06:16:40.276Z,98516.72
2023-02-22T06:18:41.763Z,98506.72
2023-02-22T06:20:45.511Z,98509.41
2023-02-22T06:22:48.142Z,98511.31
2023-02-22T06:24:49.737Z,98508.81
2023-02-22T06:26:59.657Z,98510.69
2023-02-22T06:29:02.018Z,98517.75
2023-02-22T06:31:03.956Z,98510.69
2023-02-22T06:33:05.600Z,98512.34
2023-02-22T06:35:10.632Z,98515.66
2023-02-22T06:37:12.357Z,98510.25
2023-02-22T06:39:15.675Z,98512.75
2023-02-22T06:41:17.615Z,98516.06
2023-02-22T06:43:19.652Z,98516.06
2023-02-22T06:45:21.707Z,98516.88
2023-02-22T06:47:23.369Z,98522.06
2023-02-22T06:49:30.705Z,98523.94
2023-02-22T06:51:36.939Z,98517.91
2023-02-22T06:53:38.544Z,98527.69
2023-02-22T06:55:41.008Z,98521.66
2023-02-22T06:57:45.486Z,98516.47
2023-02-22T06:59:47.037Z,98523.94
2023-02-22T07:01:48.587Z,98521.22
2023-02-22T07:03:50.338Z,98521.47
2023-02-22T07:05:51.955Z,98518.53
2023-02-22T07:07:57.541Z,98513.72
2023-02-22T07:09:59.067Z,98524.53
2023-02-22T07:12:00.592Z,98521.63
2023-02-22T07:14:02.228Z,98524.09
2023-02-22T07:16:04.027Z,98522.22
2023-02-22T07:18:05.816Z,98516.41
2023-02-22T07:20:09.093Z,98517.84
2023-02-22T07:22:10.902Z,98505.75
2023-02-22T07:24:12.469Z,98504.25
2023-02-22T07:26:14.338Z,98512.94
2023-02-22T07:28:16.716Z,98514.53
2023-02-22T07:30:31.103Z,98508.69
2023-02-22T07:32:32.866Z,98506.38
2023-02-22T07:34:34.496Z,98505.47
2023-02-22T07:36:36.237Z,98507.53
2023-02-22T07:38:37.749Z,98503.53
2023-02-22T07:40:41.920Z,98511.44
2023-02-22T07:42:55.135Z,98508.88
2023-02-22T07:44:56.814Z,98504.22
2023-02-22T07:46:58.346Z,98503.47
2023-02-22T07:48:59.876Z,98509.78
2023-02-22T07:51:01.461Z,98502.75
2023-02-22T07:53:05.696Z,98505.75
2023-02-22T07:55:07.308Z,98499.78
2023-02-22T07:57:08.994Z,98501.72
2023-02-22T07:59:10.693Z,98503.66
2023-02-22T08:01:12.318Z,98503.31
2023-02-22T08:03:16.544Z,98495.47
2023-02-22T08:05:19.149Z,98500.56
2023-02-22T08:07:20.758Z,98508.34
2023-02-22T08:09:23.660Z,98501.78
2023-02-22T08:11:26.739Z,98500.03
2023-02-22T08:13:28.280Z,98498.22
2023-02-22T08:15:32.391Z,98504.63
2023-02-22T08:17:34.501Z,98507.44
2023-02-22T08:19:36.132Z,98506.53
2023-02-22T08:21:37.654Z,98513.13
2023-02-22T08:23:39.301Z,98508.44
2023-02-22T08:25:41.233Z,98506.63
2023-02-22T08:27:43.994Z,98506.19
2023-02-22T08:29:47.737Z,98504.16
2023-02-22T08:31:56.666Z,98501.56
2023-02-22T08:33:58.623Z,98501.69
2023-02-22T08:36:01.670Z,98506.16
2023-02-22T08:38:05.931Z,98499.00
2023-02-22T08:40:10.973Z,98495.31
2023-02-22T08:42:13.508Z,98507.69
2023-02-22T08:44:15.012Z,98504.03
2023-02-22T08:46:17.730Z,98502.84
2023-02-22T08:48:20.122Z,98505.66
2023-02-22T08:50:24.733Z,98501.75
2023-02-22T08:52:26.507Z,98502.69
2023-02-22T08:54:28.188Z,98491.66
2023-02-22T08:56:32.479Z,98495.91
2023-02-22T08:58:33.980Z,98489.50
2023-02-22T09:00:38.688Z,98489.13
2023-02-22T09:02:41.644Z,98492.50
2023-02-22T09:04:43.910Z,98494.84
2023-02-22T09:06:53.710Z,98487.09
2023-02-22T09:08:55.561Z,98490.25
2023-02-22T09:10:57.110Z,98486.31
2023-02-22T09:13:01.315Z,98486.50
2023-02-22T09:15:03.204Z,98491.28
2023-02-22T09:17:05.964Z,98491.44
2023-02-22T09:19:07.503Z,98488.06
2023-02-22T09:21:09.105Z,98489.88
2023-02-22T09:23:10.835Z,98480.78
2023-02-22T09:25:16.949Z,98477.16
2023-02-22T09:27:20.370Z,98485.81
2023-02-22T09:29:24.004Z,98482.72
2023-02-22T09:31:25.677Z,98484.00
2023-02-22T09:33:27.372Z,98483.38
2023-02-22T09:35:29.351Z,98476.69
2023-02-22T09:37:31.109Z,98474.97
2023-02-22T09:39:37.763Z,98474.59
2023-02-22T09:41:51.444Z,98475.31
2023-02-22T09:44:03.855Z,98479.84
2023-02-22T09:46:13.674Z,98470.44
2023-02-22T09:48:22.199Z,98464.88
2023-02-22T09:50:35.580Z,98460.91
2023-02-22T09:53:04.244Z,98463.25
2023-02-22T09:55:10.584Z,98448.66
2023-02-22T09:57:18.020Z,98464.88
2023-02-22T09:59:34.982Z,98457.06
2023-02-22T10:01:48.054Z,98448.41
2023-02-22T10:03:57.093Z,98444.03
2023-02-22T10:06:05.181Z,98440.75
2023-02-22T10:08:12.970Z,98447.88
2023-02-22T10:10:18.814Z,98439.63
2023-02-22T10:12:30.647Z,98445.56
2023-02-22T10:14:48.011Z,98440.50
2023-02-22T10:17:06.714Z,98441.44
2023-02-22T10:19:32.249Z,98445.41
2023-02-22T10:21:47.428Z,98439.97
2023-02-22T10:24:07.427Z,98438.19
2023-02-22T10:26:25.663Z,98430.63
2023-02-22T10:28:34.891Z,98428.50
2023-02-22T10:30:42.237Z,98427.00
2023-02-22T10:32:46.431Z,98430.19
2023-02-22T10:34:53.588Z,98419.09
2023-02-22T10:37:08.407Z,98423.06
2023-02-22T10:39:25.428Z,98424.50
2023-02-22T10:41:42.181Z,98414.94
2023-02-22T10:43:44.491Z,98413.00
2023-02-22T10:45:46.395Z,98412.19
2023-02-22T10:47:49.146Z,98401.44
2023-02-22T10:49:55.687Z,98406.63
2023-02-22T10:52:02.528Z,98404.66
2023-02-22T10:54:24.182Z,98401.53
2023-02-22T10:56:27.611Z,98408.09
2023-02-22T10:58:29.260Z,98402.31
2023-02-22T11:00:37.293Z,98395.16
2023-02-22T11:02:39.039Z,98394.34
2023-02-22T11:04:53.603Z,98390.53
2023-02-22T11:07:01.331Z,98383.47
2023-02-22T11:09:15.008Z,98389.59
2023-02-22T11:11:25.448Z,98388.31
2023-02-22T11:13:33.296Z,98387.09
2023-02-22T11:15:36.098Z,98381.94
2023-02-22T11:17:37.665Z,98374.38
2023-02-22T11:19:47.387Z,98374.25
2023-02-22T11:21:55.184Z,98379.38
2023-02-22T11:24:11.205Z,98370.16
2023-02-22T11:26:17.555Z,98370.03
2023-02-22T11:28:32.763Z,98365.81
2023-02-22T11:30:36.124Z,98367.13
2023-02-22T11:32:46.664Z,98361.28
2023-02-22T11:35:00.203Z,98360.47
2023-02-22T11:37:26.032Z,98354.94
2023-02-22T11:39:35.402Z,98350.72
2023-02-22T11:41:37.313Z,98344.88
2023-02-22T11:43:38.960Z,98339.53
2023-02-22T11:46:02.159Z,98336.47
2023-02-22T11:48:06.675Z,98343.19
2023-02-22T11:50:22.978Z,98340.28
2023-02-22T11:52:34.652Z,98339.19
2023-02-22T11:55:07.935Z,98326.88
2023-02-22T11:57:26.275Z,98328.22
2023-02-22T12:00:07.304Z,98317.50
2023-02-22T12:02:51.806Z,98317.44
2023-02-22T12:05:23.878Z,98314.88
2023-02-22T12:07:42.212Z,98308.22
2023-02-22T12:10:09.043Z,98315.09
2023-02-22T12:12:22.922Z,98307.78
2023-02-22T12:14:39.142Z,98302.56
2023-02-22T12:17:05.683Z,98296.72
2023-02-22T12:19:14.965Z,98299.50
2023-02-22T12:21:20.726Z,98296.56
2023-02-22T12:23:37.518Z,98291.72
2023-02-22T12:25:49.093Z,98289.91
2023-02-22T12:28:04.275Z,98287.31
2023-02-22T12:30:24.079Z,98289.94
2023-02-22T12:32:48.772Z,98287.31
2023-02-22T12:34:57.257Z,98286.34
2023-02-22T12:37:22.572Z,98282.25
2023-02-22T12:39:52.387Z,98280.94
2023-02-22T12:41:57.301Z,98282.91
2023-02-22T12:44:17.266Z,98278.78
2023-02-22T12:46:26.252Z,98283.03
2023-02-22T12:48:54.128Z,98277.63
2023-02-22T12:51:02.339Z,98279.44
2023-02-22T12:53:17.035Z,98271.09
2023-02-22T12:55:29.104Z,98268.81
2023-02-22T12:57:42.551Z,98270.94
2023-02-22T12:59:49.873Z,98268.75
2023-02-22T13:02:12.885Z,98267.13
2023-02-22T13:04:20.923Z,98259.59
2023-02-22T13:07:07.303Z,98256.31
2023-02-22T13:09:36.277Z,98266.56
2023-02-22T13:12:04.761Z,98255.63
2023-02-22T13:14:27.098Z,98251.00
2023-02-22T13:16:52.591Z,98250.19
2023-02-22T13:19:08.054Z,98248.25
2023-02-22T13:21:16.317Z,98237.13
2023-02-22T13:23:34.453Z,98241.53
2023-02-22T13:26:14.422Z,98240.56
2023-02-22T13:28:41.372Z,98241.56
2023-02-22T13:31:15.010Z,98240.94
2023-02-22T13:33:30.277Z,98235.75
2023-02-22T13:36:02.847Z,98233.63
2023-02-22T13:38:46.922Z,98227.25
2023-02-22T13:41:09.036Z,98226.59
2023-02-22T13:43:21.819Z,98230.66
2023-02-22T13:45:51.292Z,98229.19
2023-02-22T13:48:12.437Z,98234.22
2023-02-22T13:50:34.578Z,98227.97
2023-02-22T13:52:40.008Z,98218.66
2023-02-22T13:54:51.430Z,98229.59
2023-02-22T13:56:56.225Z,98218.59
2023-02-22T13:59:01.475Z,98218.75
2023-02-22T14:01:03.133Z,98218.88
2023-02-22T14:03:08.483Z,98218.56
2023-02-22T14:05:35.288Z,98218.56
2023-02-22T14:07:47.208Z,98213.00
2023-02-22T14:09:51.565Z,98214.63
2023-02-22T14:11:56.879Z,98211.03
2023-02-22T14:14:00.939Z,98213.31
2023-02-22T14:16:11.708Z,98218.09
2023-02-22T14:18:17.578Z,98214.34
2023-02-22T14:20:30.975Z,98217.47
2023-02-22T14:22:32.652Z,98213.38
2023-02-22T14:24:48.663Z,98212.41
2023-02-22T14:26:56.717Z,98210.81
2023-02-22T14:29:07.865Z,98205.09
2023-02-22T14:31:29.471Z,98209.03
2023-02-22T14:33:49.134Z,98210.03
2023-02-22T14:35:51.335Z,98210.72
2023-02-22T14:37:55.670Z,98211.38
2023-02-22T14:39:57.109Z,98214.00
2023-02-22T14:42:05.281Z,98212.59
2023-02-22T14:44:12.949Z,98211.28
2023-02-22T14:46:24.062Z,98210.97
2023-02-22T14:48:45.314Z,98204.00
2023-02-22T14:50:54.555Z,98208.88
2023-02-22T14:53:03.479Z,98205.47
2023-02-22T14:55:33.409Z,98206.31
2023-02-22T14:57:45.688Z,98205.66
2023-02-22T15:00:01.650Z,98210.09
2023-02-22T15:02:12.749Z,98207.50
2023-02-22T15:04:24.551Z,98203.28
2023-02-22T15:06:31.323Z,98209.50
2023-02-22T15:08:34.471Z,98205.25
2023-02-22T15:10:47.765Z,98206.59
2023-02-22T15:13:13.416Z,98199.09
2023-02-22T15:15:24.725Z,98202.84
2023-02-22T15:17:26.346Z,98191.13
2023-02-22T15:19:31.374Z,98202.34
2023-02-22T15:21:34.075Z,98198.59
2023-02-22T15:23:49.737Z,98196.19
2023-02-22T15:25:52.014Z,98189.63
2023-02-22T15:27:56.750Z,98194.22
2023-02-22T15:30:04.970Z,98192.44
2023-02-22T15:32:33.815Z,98186.06
2023-02-22T15:34:37.947Z,98180.38
2023-02-22T15:36:39.480Z,98187.19
2023-02-22T15:38:43.136Z,98186.19
2023-02-22T15:40:45.873Z,98187.19
2023-02-22T15:42:58.652Z,98184.91
2023-02-22T15:45:00.275Z,98179.53
2023-02-22T15:47:15.641Z,98183.28
2023-02-22T15:49:29.014Z,98187.31
2023-02-22T15:51:32.801Z,98177.22
2023-02-22T15:53:40.157Z,98174.56
2023-02-22T15:55:47.231Z,98178.31
2023-02-22T15:57:49.681Z,98175.69
2023-02-22T15:59:59.481Z,98179.75
2023-02-22T16:02:01.837Z,98178.25
2023-02-22T16:04:04.751Z,98185.09
2023-02-22T16:06:13.149Z,98194.03
2023-02-22T16:08:22.434Z,98184.56
2023-02-22T16:10:33.520Z,98184.69
2023-02-22T16:12:35.763Z,98187.59
2023-02-22T16:14:37.734Z,98176.69
2023-02-22T16:16:44.329Z,98185.94
2023-02-22T16:18:46.753Z,98185.75
2023-02-22T16:20:58.425Z,98184.59
2023-02-22T16:23:00.096Z,98176.13
2023-02-22T16:25:21.553Z,98176.56
2023-02-22T16:27:24.668Z,98181.91
2023-02-22T16:29:26.822Z,98180.38
2023-02-22T16:31:34.033Z,98178.59
2023-02-22T16:33:39.069Z,98179.00
2023-02-22T16:35:51.799Z,98184.66
2023-02-22T16:38:03.792Z,98179.91
2023-02-22T16:40:20.143Z,98178.41
2023-02-22T16:42:24.101Z,98179.16
2023-02-22T16:44:26.622Z,98181.22
2023-02-22T16:46:28.458Z,98178.91
2023-02-22T16:48:38.342Z,98178.22
2023-02-22T16:50:40.942Z,98177.53
2023-02-22T16:52:42.739Z,98175.22
2023-02-22T16:54:46.240Z,98171.75
2023-02-22T16:56:48.078Z,98177.38
2023-02-22T16:58:51.116Z,98178.09
2023-02-22T17:00:52.615Z,98172.19
2023-02-22T17:02:54.574Z,98181.69
2023-02-22T17:04:56.237Z,98185.72
2023-02-22T17:06:59.328Z,98187.75
2023-02-22T17:09:01.231Z,98186.53
2023-02-22T17:11:05.997Z,98180.63
2023-02-22T17:13:22.162Z,98188.47
2023-02-22T17:15:32.444Z,98189.22
2023-02-22T17:17:34.039Z,98186.88
2023-02-22T17:19:37.583Z,98190.03
2023-02-22T17:21:48.303Z,98187.16
2023-02-22T17:23:49.832Z,98191.97
2023-02-22T17:26:02.315Z,98195.97
2023-02-22T17:28:05.843Z,98188.34
2023-02-22T17:30:08.778Z,98191.53
2023-02-22T17:32:11.095Z,98190.81
2023-02-22T17:34:13.101Z,98198.66
2023-02-22T17:36:15.106Z,98203.63
2023-02-22T17:38:18.414Z,98193.00
2023-02-22T17:40:20.296Z,98201.66
2023-02-22T17:42:22.033Z,98192.97
2023-02-22T17:44:26.318Z,98194.69
2023-02-22T17:46:28.216Z,98198.34
2023-02-22T17:48:30.047Z,98199.25
2023-02-22T17:50:32.976Z,98202.91
2023-02-22T17:52:34.609Z,98201.88
2023-02-22T17:54:36.638Z,98199.50
2023-02-22T17:56:38.521Z,98194.38
2023-02-22T17:58:41.388Z,98196.91
2023-02-22T18:00:46.656Z,98199.72
2023-02-22T18:02:49.586Z,98195.94
2023-02-22T18:04:51.328Z,98198.47
2023-02-22T18:06:53.212Z,98197.41
2023-02-22T18:08:56.959Z,98194.72
2023-02-22T18:10:59.037Z,98201.13
2023-02-22T18:13:04.259Z,98200.06
2023-02-22T18:15:08.989Z,98197.94
2023-02-22T18:17:10.628Z,98207.88
2023-02-22T18:19:12.113Z,98210.69
2023-02-22T18:21:15.588Z,98210.50
2023-02-22T18:23:20.557Z,98214.94
2023-02-22T18:25:22.594Z,98208.09
2023-02-22T18:27:25.997Z,98213.66
2023-02-22T18:29:29.047Z,98212.63
2023-02-22T18:31:31.014Z,98211.56
2023-02-22T18:33:32.686Z,98205.03
2023-02-22T18:35:39.007Z,98204.78
2023-02-22T18:37:40.550Z,98206.19
2023-02-22T18:39:43.168Z,98204.84
2023-02-22T18:41:48.590Z,98202.16
2023-02-22T18:43:50.945Z,98209.06
2023-02-22T18:45:52.780Z,98197.84
2023-02-22T18:47:54.423Z,98207.50
2023-02-22T18:49:57.216Z,98204.50
2023-02-22T18:51:59.716Z,98207.03
2023-02-22T18:54:01.297Z,98211.47
2023-02-22T18:56:08.654Z,98211.78
2023-02-22T18:58:11.255Z,98213.44
2023-02-22T19:00:16.132Z,98209.66
2023-02-22T19:02:21.839Z,98208.00
2023-02-22T19:04:25.437Z,98211.06
2023-02-22T19:06:27.333Z,98202.88
2023-02-22T19:08:32.374Z,98206.16
2023-02-22T19:10:34.051Z,98201.25
2023-02-22T19:12:35.703Z,98201.81
2023-02-22T19:14:42.369Z,98196.13
2023-02-22T19:16:46.991Z,98200.25
2023-02-22T19:18:50.845Z,98206.31
2023-02-22T19:20:58.842Z,98211.28
2023-02-22T19:23:01.206Z,98205.56
2023-02-22T19:25:06.658Z,98205.84
2023-02-22T19:27:08.639Z,98202.84
2023-02-22T19:29:10.205Z,98205.06
2023-02-22T19:31:12.913Z,98205.66
2023-02-22T19:33:14.619Z,98196.06
2023-02-22T19:35:26.296Z,98200.50
2023-02-22T19:37:34.816Z,98197.25
2023-02-22T19:39:38.336Z,98195.88
2023-02-22T19:41:40.412Z,98195.34
2023-02-22T19:43:42.157Z,98192.38
2023-02-22T19:45:44.415Z,98204.44
2023-02-22T19:47:47.166Z,98197.59
2023-02-22T19:49:52.833Z,98195.72
2023-02-22T19:51:58.118Z,98199.56
2023-02-22T19:54:02.651Z,98199.88
2023-02-22T19:56:18.343Z,98199.38
2023-02-22T19:58:19.975Z,98198.56
2023-02-22T20:00:24.375Z,98196.09
2023-02-22T20:02:27.774Z,98199.69
2023-02-22T20:04:30.937Z,98198.91
2023-02-22T20:06:40.240Z,98198.94
2023-02-22T20:08:42.334Z,98200.31
2023-02-22T20:10:44.205Z,98200.88
2023-02-22T20:12:48.729Z,98201.16
2023-02-22T20:14:51.544Z,98206.41
2023-02-22T20:16:54.740Z,98213.28
2023-02-22T20:18:56.328Z,98218.78
2023-02-22T20:20:57.918Z,98213.03
2023-02-22T20:23:00.640Z,98211.66
2023-02-22T20:25:02.209Z,98217.47
2023-02-22T20:27:03.947Z,98223.50
2023-02-22T20:29:09.531Z,98224.88
2023-02-22T20:31:13.863Z,98218.06
2023-02-22T20:33:16.808Z,98225.75
2023-02-22T20:35:18.382Z,98225.22
2023-02-22T20:37:21.607Z,98229.34
2023-02-22T20:39:23.158Z,98235.63
2023-02-22T20:41:41.566Z,98229.91
2023-02-22T20:43:50.191Z,98225.28
2023-02-22T20:45:55.047Z,98226.38
2023-02-22T20:47:59.263Z,98224.72
2023-02-22T20:50:00.897Z,98223.34
2023-02-22T20:52:03.145Z,98224.72
2023-02-22T20:54:11.422Z,98227.25
2023-02-22T20:56:15.505Z,98232.44
2023-02-22T20:58:19.854Z,98230.78
2023-02-22T21:00:21.586Z,98231.94
2023-02-22T21:02:23.447Z,98229.19
2023-02-22T21:04:33.081Z,98239.63
2023-02-22T21:06:37.461Z,98235.53
2023-02-22T21:08:38.932Z,98226.75
2023-02-22T21:10:45.740Z,98229.50
2023-02-22T21:12:47.792Z,98231.16
2023-02-22T21:14:49.398Z,98234.75
2023-02-22T21:16:52.590Z,98233.38
2023-02-22T21:18:58.682Z,98247.06
2023-02-22T21:21:12.389Z,98233.09
2023-02-22T21:23:15.864Z,98239.97
2023-02-22T21:25:17.478Z,98242.16
2023-02-22T21:27:19.133Z,98245.75
2023-02-22T21:29:20.682Z,98243.56
2023-02-22T21:31:25.106Z,98243.28
2023-02-22T21:33:29.666Z,98239.19
2023-02-22T21:35:31.413Z,98242.22
2023-02-22T21:37:34.227Z,98237.56
2023-02-22T21:39:35.827Z,98240.84
2023-02-22T21:41:40.514Z,98230.75
2023-02-22T21:43:43.894Z,98238.41
2023-02-22T21:45:45.530Z,98235.13
2023-02-22T21:47:48.341Z,98243.09
2023-02-22T21:49:49.818Z,98236.25
2023-02-22T21:51:52.544Z,98237.31
2023-02-22T21:53:54.931Z,98235.13
2023-02-22T21:55:57.590Z,98229.41
2023-02-22T21:57:59.521Z,98232.41
2023-02-22T22:00:17.442Z,98235.72
2023-02-22T22:02:20.582Z,98230.50
2023-02-22T22:04:27.571Z,98240.91
2023-02-22T22:06:34.561Z,98239.56
2023-02-22T22:08:40.115Z,98243.66
2023-02-22T22:10:41.712Z,98246.94
2023-02-22T22:12:46.230Z,98237.38
2023-02-22T22:14:50.286Z,98238.72
2023-02-22T22:16:54.510Z,98235.16
2023-02-22T22:18:56.326Z,98239.84
2023-02-22T22:20:57.844Z,98236.81
2023-02-22T22:22:59.528Z,98237.88
2023-02-22T22:25:03.359Z,98237.09
2023-02-22T22:27:12.303Z,98239.25
2023-02-22T22:29:19.765Z,98235.44
2023-02-22T22:31:23.902Z,98238.72
2023-02-22T22:33:25.719Z,98237.63
2023-02-22T22:35:27.306Z,98241.72
2023-02-22T22:37:29.327Z,98234.59
2023-02-22T22:39:31.025Z,98232.69
2023-02-22T22:41:41.153Z,98232.41
2023-02-22T22:43:46.140Z,98237.34
2023-02-22T22:45:47.640Z,98236.50
2023-02-22T22:47:49.302Z,98237.63
2023-02-22T22:49:50.819Z,98236.25
2023-02-22T22:51:53.482Z,98238.19
2023-02-22T22:53:54.933Z,98233.78
2023-02-22T22:56:03.860Z,98239.25
2023-02-22T22:58:05.563Z,98233.78
2023-02-22T23:00:37.965Z,98231.59
2023-02-22T23:02:40.670Z,98240.38
2023-02-22T23:04:42.314Z,98242.53
2023-02-22T23:06:52.425Z,98232.16
2023-02-22T23:09:10.229Z,98234.59
2023-02-22T23:11:12.701Z,98235.69
2023-02-22T23:13:15.739Z,98235.97
2023-02-22T23:15:17.996Z,98236.81
2023-02-22T23:17:31.485Z,98234.91
2023-02-22T23:19:35.697Z,98236.81
2023-02-22T23:21:39.032Z,98234.91
2023-02-22T23:23:41.307Z,98233.53
2023-02-22T23:25:43.202Z,98233.78
2023-02-22T23:27:54.922Z,98242.28
2023-02-22T23:29:56.477Z,98241.72
2023-02-22T23:31:58.700Z,98237.63
2023-02-22T23:34:00.375Z,98240.06
2023-02-22T23:36:04.368Z,98237.63
2023-02-22T23:38:08.379Z,98231.31
2023-02-22T23:40:17.051Z,98234.88
2023-02-22T23:42:18.822Z,98239.00
2023-02-22T23:44:21.996Z,98236.50
2023-02-22T23:46:24.028Z,98236.50
2023-02-22T23:48:28.380Z,98238.69
2023-02-22T23:50:31.441Z,98234.31
2023-02-22T23:52:32.991Z,98240.88
2023-02-22T23:54:40.417Z,98242.78
2023-02-22T23:56:58.336Z,98240.88
2023-02-22T23:59:10.760Z,98237.63
